createdAt,value
2023-03-22T00:03:21.449Z,13.70
2023-03-22T00:08:26.197Z,13.70
2023-03-22T00:13:29.314Z,13.70
2023-03-22T00:18:32.853Z,13.80
2023-03-22T00:23:37.366Z,13.70
2023-03-22T00:28:40.791Z,13.60
2023-03-22T00:33:43.893Z,13.60
2023-03-22T00:38:48.355Z,13.60
2023-03-22T00:43:52.842Z,13.50
2023-03-22T00:48:55.928Z,13.40
2023-03-22T00:54:00.455Z,13.30
2023-03-22T00:59:03.555Z,13.20
2023-03-22T01:04:07.418Z,13.10
2023-03-22T01:09:14.950Z,13.00
2023-03-22T01:14:19.540Z,13.00
2023-03-22T01:19:22.618Z,13.00
2023-03-22T01:24:27.121Z,13.00
2023-03-22T01:29:31.264Z,13.00
2023-03-22T01:34:34.399Z,13.10
2023-03-22T01:39:38.941Z,13.10
2023-03-22T01:44:44.707Z,13.10
2023-03-22T01:49:48.015Z,13.00
2023-03-22T01:54:54.882Z,12.90
2023-03-22T01:59:58.330Z,12.90
2023-03-22T02:05:04.219Z,12.90
2023-03-22T02:10:12.830Z,13.00
2023-03-22T02:15:24.684Z,13.00
2023-03-22T02:21:02.479Z,13.00
2023-03-22T02:26:41.582Z,13.00
2023-03-22T02:32:17.766Z,13.00
2023-03-22T02:37:53.416Z,13.00
2023-03-22T02:43:06.464Z,12.90
2023-03-22T02:48:14.716Z,13.00
2023-03-22T02:53:21.602Z,13.00
2023-03-22T02:58:29.711Z,13.00
2023-03-22T03:03:37.680Z,13.10
2023-03-22T03:08:41.806Z,13.00
2023-03-22T03:13:48.783Z,13.00
2023-03-22T03:18:59.521Z,12.90
2023-03-22T03:24:15.539Z,12.90
2023-03-22T03:29:26.549Z,12.90
2023-03-22T03:34:35.052Z,12.90
2023-03-22T03:39:44.248Z,13.00
2023-03-22T03:44:49.024Z,13.00
2023-03-22T03:49:52.249Z,13.00
2023-03-22T03:54:55.653Z,12.90
2023-03-22T04:00:00.183Z,12.90
2023-03-22T04:05:03.716Z,12.90
2023-03-22T04:10:09.422Z,12.90
2023-03-22T04:15:14.097Z,12.70
2023-03-22T04:20:17.340Z,12.70
2023-03-22T04:25:22.844Z,12.60
2023-03-22T04:30:27.579Z,12.60
2023-03-22T04:35:30.662Z,12.60
2023-03-22T04:40:36.564Z,12.40
2023-03-22T04:45:42.168Z,12.10
2023-03-22T04:50:45.645Z,12.00
2023-03-22T04:55:48.892Z,11.90
2023-03-22T05:00:54.250Z,11.90
2023-03-22T05:05:58.935Z,11.90
2023-03-22T05:11:09.187Z,11.80
2023-03-22T05:16:13.772Z,11.60
2023-03-22T05:21:22.085Z,11.50
2023-03-22T05:26:26.484Z,11.40
2023-03-22T05:31:34.644Z,11.40
2023-03-22T05:36:37.887Z,11.40
2023-03-22T05:41:41.451Z,11.30
2023-03-22T05:46:45.978Z,11.20
2023-03-22T05:51:49.199Z,11.20
2023-03-22T05:56:55.631Z,11.10
2023-03-22T06:02:00.265Z,11.10
2023-03-22T06:07:03.419Z,11.20
2023-03-22T06:12:07.086Z,11.20
2023-03-22T06:17:12.196Z,11.30
2023-03-22T06:22:16.011Z,11.30
2023-03-22T06:27:19.436Z,11.30
2023-03-22T06:32:24.766Z,11.40
2023-03-22T06:37:27.978Z,11.50
2023-03-22T06:42:34.324Z,11.60
2023-03-22T06:47:39.041Z,11.60
2023-03-22T06:52:42.287Z,11.70
2023-03-22T06:57:45.455Z,11.70
2023-03-22T07:02:52.578Z,11.70
2023-03-22T07:07:55.947Z,11.80
2023-03-22T07:12:59.322Z,11.90
2023-03-22T07:18:03.994Z,12.00
2023-03-22T07:23:07.100Z,12.20
2023-03-22T07:28:11.222Z,12.30
2023-03-22T07:33:15.969Z,12.50
2023-03-22T07:38:19.268Z,12.60
2023-03-22T07:43:22.636Z,12.80
2023-03-22T07:48:28.909Z,13.00
2023-03-22T07:53:32.071Z,13.20
2023-03-22T07:58:35.383Z,13.40
2023-03-22T08:03:40.257Z,13.70
2023-03-22T08:08:43.632Z,14.00
2023-03-22T08:13:46.791Z,14.30
2023-03-22T08:18:51.256Z,14.50
2023-03-22T08:23:54.744Z,14.80
2023-03-22T08:28:58.424Z,15.10
2023-03-22T08:34:02.975Z,15.40
2023-03-22T08:39:06.688Z,15.60
2023-03-22T08:44:10.020Z,15.90
2023-03-22T08:49:15.105Z,16.10
2023-03-22T08:54:18.334Z,16.30
2023-03-22T08:59:21.496Z,16.60
2023-03-22T09:04:26.332Z,16.80
2023-03-22T09:09:29.476Z,17.00
2023-03-22T09:14:32.586Z,17.20
2023-03-22T09:19:40.065Z,17.40
2023-03-22T09:24:43.236Z,17.60
2023-03-22T09:29:46.371Z,17.80
2023-03-22T09:34:51.018Z,18.00
2023-03-22T09:39:54.129Z,18.20
2023-03-22T09:44:58.672Z,18.40
2023-03-22T09:50:09.633Z,18.60
2023-03-22T09:55:20.704Z,18.70
2023-03-22T10:00:32.623Z,18.90
2023-03-22T10:05:44.669Z,19.10
2023-03-22T10:10:48.015Z,19.30
2023-03-22T10:15:53.453Z,19.40
2023-03-22T10:21:02.393Z,19.60
2023-03-22T10:26:07.649Z,19.60
2023-03-22T10:31:17.514Z,19.60
2023-03-22T10:36:24.938Z,19.60
2023-03-22T10:41:29.718Z,19.70
2023-03-22T10:46:36.849Z,19.90
2023-03-22T10:51:47.463Z,20.00
2023-03-22T10:56:50.591Z,20.20
2023-03-22T11:01:53.970Z,20.30
2023-03-22T11:06:58.545Z,20.40
2023-03-22T11:12:02.914Z,20.40
2023-03-22T11:17:12.673Z,20.50
2023-03-22T11:22:26.311Z,20.60
2023-03-22T11:27:31.323Z,20.60
2023-03-22T11:32:39.383Z,20.60
2023-03-22T11:37:45.436Z,20.70
2023-03-22T11:42:50.584Z,20.80
2023-03-22T11:47:54.866Z,20.80
2023-03-22T11:53:02.928Z,20.80
2023-03-22T11:58:07.284Z,20.90
2023-03-22T12:03:16.372Z,20.90
2023-03-22T12:08:27.293Z,21.00
2023-03-22T12:13:38.997Z,21.10
2023-03-22T12:18:50.440Z,21.20
2023-03-22T12:23:59.970Z,21.30
2023-03-22T12:29:05.788Z,21.30
2023-03-22T12:34:13.629Z,21.30
2023-03-22T12:39:24.455Z,21.30
2023-03-22T12:44:32.237Z,21.30
2023-03-22T12:49:40.600Z,21.40
2023-03-22T12:54:45.623Z,21.40
2023-03-22T12:59:52.181Z,21.30
2023-03-22T13:04:57.268Z,21.30
2023-03-22T13:10:22.584Z,21.30
2023-03-22T13:15:41.900Z,21.30
2023-03-22T13:21:16.562Z,21.40
2023-03-22T13:26:21.784Z,21.40
2023-03-22T13:31:38.081Z,21.40
2023-03-22T13:36:41.466Z,21.50
2023-03-22T13:41:50.003Z,21.60
2023-03-22T13:46:54.498Z,21.70
2023-03-22T13:52:01.941Z,21.80
2023-03-22T13:57:18.430Z,21.80
2023-03-22T14:02:29.203Z,21.80
2023-03-22T14:07:36.627Z,21.90
2023-03-22T14:12:50.642Z,21.90
2023-03-22T14:17:58.174Z,22.00
